Time;durP1;ratioP1;P1;durP2;ratioP2;P2;SDS_P1;SDS_P2;PMS_P1;PMS_P2;Temp;Humidity;BMP_temperature;BMP_pressure;BME280_temperature;BME280_humidity;BME280_pressure;Samples;Min_cycle;Max_cycle;Signal;HPM_P1;HPM_P2
2023/03/31 00:02:00;;;;;;;2.92;0.43;;;13.00;99.90;;;;;;5018969;28;20022;-66
2023/03/31 00:04:27;;;;;;;3.42;0.90;;;13.00;99.90;;;;;;5018983;28;20025;-65
2023/03/31 00:06:53;;;;;;;3.47;0.68;;;13.00;99.90;;;;;;5018824;28;20018;-66
2023/03/31 00:09:20;;;;;;;5.10;0.60;;;13.00;99.90;;;;;;5019635;28;20152;-65
2023/03/31 00:11:47;;;;;;;5.45;0.60;;;13.00;99.90;;;;;;5019575;28;20026;-66
2023/03/31 00:14:12;;;;;;;2.90;0.50;;;13.00;99.90;;;;;;5018663;28;20053;-66
2023/03/31 00:16:38;;;;;;;2.35;0.57;;;12.90;99.90;;;;;;5018630;28;20053;-66
2023/03/31 00:19:05;;;;;;;4.50;0.90;;;12.90;99.90;;;;;;5018569;28;20022;-65
2023/03/31 00:21:35;;;;;;;3.08;0.60;;;12.90;99.90;;;;;;5019047;28;20049;-66
2023/03/31 00:24:11;;;;;;;2.13;0.50;;;12.90;99.90;;;;;;5018591;28;20029;-66
2023/03/31 00:26:38;;;;;;;2.85;0.98;;;12.90;99.90;;;;;;5018924;28;20032;-66
2023/03/31 00:29:05;;;;;;;4.03;0.93;;;12.90;99.90;;;;;;5018985;28;20026;-66
2023/03/31 00:31:31;;;;;;;3.92;0.60;;;12.80;99.90;;;;;;5018637;28;20056;-65
2023/03/31 00:33:57;;;;;;;6.60;0.52;;;12.70;99.90;;;;;;5018308;28;20117;-65
2023/03/31 00:36:26;;;;;;;1.90;0.50;;;12.70;99.90;;;;;;5018123;28;20053;-67
2023/03/31 00:38:58;;;;;;;3.08;0.40;;;12.60;99.90;;;;;;5018610;28;20029;-66
2023/03/31 00:41:24;;;;;;;2.78;0.50;;;12.50;99.90;;;;;;5018359;28;20022;-65
2023/03/31 00:44:07;;;;;;;2.03;0.47;;;12.40;99.90;;;;;;5018144;28;20022;-66
2023/03/31 00:46:54;;;;;;;1.75;0.73;;;12.30;99.90;;;;;;5018050;28;20022;-65
2023/03/31 00:49:28;;;;;;;1.27;0.60;;;12.20;99.90;;;;;;5018852;28;20022;-66
2023/03/31 00:52:15;;;;;;;3.80;0.40;;;12.20;99.90;;;;;;5115049;27;20329;-63
2023/03/31 00:54:45;;;;;;;2.65;0.55;;;12.20;99.90;;;;;;5114208;28;20024;-63
2023/03/31 00:57:11;;;;;;;2.67;0.93;;;12.30;99.90;;;;;;5113930;28;20070;-63
2023/03/31 00:59:42;;;;;;;3.28;0.65;;;12.30;99.90;;;;;;5114092;28;20054;-63
2023/03/31 01:02:09;;;;;;;2.15;0.35;;;12.40;99.90;;;;;;5115192;28;20024;-63
2023/03/31 01:04:41;;;;;;;1.67;0.30;;;12.30;99.90;;;;;;5114176;28;20054;-63
2023/03/31 01:07:37;;;;;;;4.10;0.85;;;12.20;99.90;;;;;;5114930;28;20024;-63
2023/03/31 01:10:03;;;;;;;4.10;0.70;;;12.10;99.90;;;;;;5114527;28;20023;-63
2023/03/31 01:12:32;;;;;;;2.33;0.50;;;12.10;99.90;;;;;;5114151;28;20023;-63
2023/03/31 01:14:59;;;;;;;2.22;0.50;;;12.10;99.90;;;;;;5113745;28;20024;-63
2023/03/31 01:17:28;;;;;;;3.42;0.43;;;12.10;99.90;;;;;;5113958;28;20016;-63
2023/03/31 01:20:20;;;;;;;1.70;0.85;;;12.10;99.90;;;;;;5114612;28;20016;-63
2023/03/31 01:23:25;;;;;;;2.25;0.85;;;12.00;99.90;;;;;;5113672;28;20034;-63
2023/03/31 01:25:56;;;;;;;14.63;0.70;;;12.10;99.90;;;;;;5114473;28;20043;-63
2023/03/31 01:29:00;;;;;;;3.17;0.50;;;12.10;99.90;;;;;;5113381;28;20027;-63
2023/03/31 01:31:43;;;;;;;3.25;0.93;;;12.10;99.90;;;;;;5113431;28;20118;-63
2023/03/31 01:34:48;;;;;;;11.57;2.15;;;12.10;99.90;;;;;;5114333;28;20024;-64
2023/03/31 01:37:36;;;;;;;1.98;0.50;;;12.10;99.90;;;;;;5112719;28;20092;-63
2023/03/31 01:40:17;;;;;;;5.78;1.08;;;12.10;99.90;;;;;;5114131;28;20073;-63
2023/03/31 01:42:51;;;;;;;6.22;1.00;;;12.10;99.90;;;;;;5113948;28;20024;-63
2023/03/31 01:45:49;;;;;;;3.25;0.55;;;12.10;99.90;;;;;;5113171;28;20055;-63
2023/03/31 01:48:52;;;;;;;3.67;0.80;;;12.10;99.90;;;;;;5114244;28;20028;-63
2023/03/31 01:51:46;;;;;;;3.58;0.70;;;12.10;99.90;;;;;;5113682;28;20027;-63
2023/03/31 01:54:19;;;;;;;5.00;0.85;;;12.10;99.90;;;;;;5112996;28;20020;-63
2023/03/31 01:57:08;;;;;;;4.85;0.52;;;12.10;99.90;;;;;;5113376;28;20024;-64
2023/03/31 01:59:41;;;;;;;3.67;0.35;;;12.10;99.90;;;;;;5112904;28;20023;-63
2023/03/31 02:02:20;;;;;;;2.05;0.57;;;12.10;99.90;;;;;;5107034;28;20024;-63
2023/03/31 02:05:08;;;;;;;3.83;0.50;;;12.10;99.90;;;;;;5099319;28;20032;-63
2023/03/31 02:07:46;;;;;;;2.55;0.50;;;12.10;99.90;;;;;;5098813;28;20058;-63
2023/03/31 02:10:13;;;;;;;5.88;0.77;;;12.20;99.90;;;;;;5099804;28;20028;-64
2023/03/31 02:12:42;;;;;;;6.60;0.93;;;12.10;99.90;;;;;;5099123;28;20035;-63
2023/03/31 02:15:10;;;;;;;1.67;0.73;;;12.10;99.90;;;;;;5099757;28;20025;-63
2023/03/31 02:17:41;;;;;;;3.75;1.08;;;12.10;99.90;;;;;;5099137;28;20020;-63
2023/03/31 02:20:10;;;;;;;5.18;0.93;;;12.10;99.90;;;;;;5099871;28;20020;-63
2023/03/31 02:22:41;;;;;;;6.95;0.88;;;12.10;99.90;;;;;;5099701;28;20044;-63
2023/03/31 02:25:11;;;;;;;4.65;0.90;;;12.10;99.90;;;;;;5099866;28;20016;-63
2023/03/31 02:27:43;;;;;;;9.30;0.82;;;12.00;99.90;;;;;;5099351;28;20035;-63
2023/03/31 02:30:10;;;;;;;5.03;1.08;;;11.90;99.90;;;;;;5098587;28;20028;-63
2023/03/31 02:32:40;;;;;;;5.43;0.90;;;11.80;99.90;;;;;;5099635;28;20032;-63
2023/03/31 02:35:11;;;;;;;4.88;1.05;;;11.80;99.90;;;;;;5099468;28;20024;-63
2023/03/31 02:37:38;;;;;;;1.85;0.70;;;11.70;99.90;;;;;;5100023;28;20027;-63
2023/03/31 02:40:10;;;;;;;6.13;0.75;;;11.60;99.90;;;;;;5099334;28;20084;-63
2023/03/31 02:42:40;;;;;;;5.38;1.08;;;11.70;99.90;;;;;;5098769;28;20024;-63
2023/03/31 02:45:52;;;;;;;8.48;1.27;;;11.90;99.90;;;;;;5098662;28;20034;-63
2023/03/31 02:48:19;;;;;;;4.43;0.73;;;12.00;99.90;;;;;;5095511;28;20036;-63
2023/03/31 02:51:21;;;;;;;2.90;0.57;;;11.90;99.90;;;;;;5098202;28;20036;-63
2023/03/31 02:54:17;;;;;;;3.03;0.82;;;12.00;99.90;;;;;;5083030;28;20048;-63
2023/03/31 02:57:01;;;;;;;2.63;0.88;;;12.00;99.90;;;;;;5098410;28;20024;-63
2023/03/31 02:59:45;;;;;;;5.55;0.98;;;12.00;99.90;;;;;;5098234;28;20024;-64
2023/03/31 03:02:43;;;;;;;3.58;1.20;;;12.00;99.90;;;;;;5099228;28;20063;-63
2023/03/31 03:05:33;;;;;;;8.98;1.05;;;11.90;99.90;;;;;;5094821;28;20131;-63
2023/03/31 03:08:42;;;;;;;4.15;0.80;;;11.90;99.90;;;;;;5098427;28;20027;-63
2023/03/31 03:11:21;;;;;;;4.43;0.80;;;11.80;99.90;;;;;;5097898;28;20028;-63
2023/03/31 03:14:01;;;;;;;6.22;1.00;;;11.80;99.90;;;;;;5097157;28;20052;-63
2023/03/31 03:16:35;;;;;;;4.75;0.93;;;11.80;99.90;;;;;;5097946;28;20016;-63
2023/03/31 03:19:04;;;;;;;4.80;1.10;;;11.60;99.90;;;;;;5098909;28;20028;-63
2023/03/31 03:21:31;;;;;;;6.57;1.33;;;11.60;99.90;;;;;;5097689;28;20123;-63
2023/03/31 03:23:58;;;;;;;2.08;0.93;;;11.50;99.90;;;;;;5097515;28;20028;-63
2023/03/31 03:26:26;;;;;;;4.20;1.10;;;11.40;99.90;;;;;;5098501;28;20020;-63
2023/03/31 03:28:53;;;;;;;5.28;1.10;;;11.30;99.90;;;;;;5098624;28;20028;-63
2023/03/31 03:31:22;;;;;;;9.43;1.42;;;11.10;99.90;;;;;;5098597;28;20028;-63
2023/03/31 03:33:48;;;;;;;7.07;0.95;;;11.00;99.90;;;;;;5098403;28;20048;-63
2023/03/31 03:36:14;;;;;;;5.50;0.90;;;11.00;99.90;;;;;;5097317;28;20031;-63
2023/03/31 03:38:39;;;;;;;8.13;1.20;;;11.00;99.90;;;;;;5097300;28;20028;-63
2023/03/31 03:41:05;;;;;;;10.20;1.45;;;11.00;99.90;;;;;;5098314;28;20021;-63
2023/03/31 03:43:31;;;;;;;10.05;1.42;;;11.00;99.90;;;;;;5097296;28;20032;-63
2023/03/31 03:45:57;;;;;;;5.50;1.25;;;10.90;99.90;;;;;;5097283;28;20024;-63
2023/03/31 03:48:22;;;;;;;9.30;1.35;;;10.90;99.90;;;;;;5097382;28;20054;-63
2023/03/31 03:50:48;;;;;;;5.05;1.35;;;10.80;99.90;;;;;;5096849;28;20028;-63
2023/03/31 03:53:14;;;;;;;6.85;1.88;;;11.00;99.90;;;;;;5097098;28;20054;-63
2023/03/31 03:55:40;;;;;;;11.00;1.77;;;10.90;99.90;;;;;;5097422;28;20016;-63
2023/03/31 03:58:06;;;;;;;11.63;2.30;;;11.00;99.90;;;;;;5097492;28;20083;-63
2023/03/31 04:00:32;;;;;;;12.27;2.60;;;11.00;99.90;;;;;;5097721;28;20024;-64
2023/03/31 04:02:58;;;;;;;12.05;2.40;;;11.10;99.90;;;;;;5097220;28;20028;-63
2023/03/31 04:05:24;;;;;;;9.68;2.58;;;11.20;99.90;;;;;;5098365;28;20032;-63
2023/03/31 04:07:49;;;;;;;13.05;3.30;;;11.30;99.90;;;;;;5097591;28;20051;-63
2023/03/31 04:10:15;;;;;;;11.82;3.75;;;11.30;99.90;;;;;;5097363;28;20024;-63
2023/03/31 04:12:40;;;;;;;13.00;4.40;;;11.30;99.90;;;;;;5096788;28;20016;-63
2023/03/31 04:15:07;;;;;;;10.75;3.88;;;11.40;99.90;;;;;;5097140;28;20047;-63
2023/03/31 04:17:33;;;;;;;10.95;4.38;;;11.40;99.90;;;;;;5096697;28;20096;-63
2023/03/31 04:20:06;;;;;;;9.45;3.80;;;11.30;99.90;;;;;;5097341;28;20028;-63
2023/03/31 04:22:39;;;;;;;14.45;4.25;;;11.20;99.90;;;;;;5098711;28;20016;-63
2023/03/31 04:25:15;;;;;;;13.63;4.50;;;11.00;99.90;;;;;;5097272;28;20020;-63
2023/03/31 04:27:49;;;;;;;8.57;3.90;;;10.90;99.90;;;;;;5097560;28;20091;-63
2023/03/31 04:30:21;;;;;;;14.38;4.03;;;10.80;99.90;;;;;;5097386;28;20024;-63
2023/03/31 04:32:49;;;;;;;12.13;4.28;;;10.70;99.90;;;;;;5097751;28;20044;-63
2023/03/31 04:35:16;;;;;;;10.13;3.85;;;10.70;99.90;;;;;;5096842;28;20051;-63
2023/03/31 04:37:43;;;;;;;13.02;4.22;;;10.80;99.90;;;;;;5096980;28;20055;-65
2023/03/31 04:40:08;;;;;;;9.95;3.55;;;10.90;99.90;;;;;;5096507;28;20100;-66
2023/03/31 04:42:34;;;;;;;10.35;4.05;;;11.10;99.90;;;;;;5096791;28;20051;-66
2023/03/31 04:45:00;;;;;;;11.63;3.70;;;11.20;99.90;;;;;;5096365;28;20024;-66
2023/03/31 04:47:26;;;;;;;13.48;4.45;;;11.20;99.90;;;;;;5096333;28;20024;-66
2023/03/31 04:49:51;;;;;;;19.60;5.00;;;11.20;99.90;;;;;;5096740;28;20039;-66
2023/03/31 04:52:17;;;;;;;12.02;4.38;;;11.10;99.90;;;;;;5096326;28;20031;-66
2023/03/31 04:54:42;;;;;;;12.90;4.72;;;11.10;99.90;;;;;;5096230;28;20107;-66
2023/03/31 04:57:08;;;;;;;19.23;4.43;;;11.10;99.90;;;;;;5096146;28;20048;-67
2023/03/31 04:59:34;;;;;;;11.60;3.80;;;11.10;99.90;;;;;;5096238;28;20017;-66
2023/03/31 05:01:59;;;;;;;13.10;4.72;;;11.10;99.90;;;;;;5096013;28;20046;-66
2023/03/31 05:04:25;;;;;;;8.95;4.10;;;11.10;99.90;;;;;;5097256;28;20039;-65
2023/03/31 05:06:51;;;;;;;7.70;3.42;;;11.30;99.90;;;;;;5096028;28;20031;-67
2023/03/31 05:09:16;;;;;;;6.60;3.10;;;11.20;99.90;;;;;;5096175;28;20028;-67
2023/03/31 05:11:42;;;;;;;6.95;2.70;;;11.30;99.90;;;;;;5096572;28;20073;-67
2023/03/31 05:14:07;;;;;;;7.82;2.97;;;11.20;99.90;;;;;;5096158;28;20020;-67
2023/03/31 05:16:33;;;;;;;9.75;2.88;;;11.20;99.90;;;;;;5096386;28;20024;-69
2023/03/31 05:18:59;;;;;;;7.32;2.65;;;11.30;99.90;;;;;;5096507;28;20054;-69
2023/03/31 05:21:25;;;;;;;8.20;2.38;;;11.40;99.90;;;;;;5096855;28;20030;-69
2023/03/31 05:23:52;;;;;;;5.38;2.10;;;11.40;99.90;;;;;;5095996;28;20028;-69
2023/03/31 05:26:18;;;;;;;7.90;3.33;;;11.50;99.90;;;;;;5095864;28;20020;-68
2023/03/31 05:28:44;;;;;;;12.23;3.53;;;11.50;99.90;;;;;;5096789;28;20035;-68
2023/03/31 05:31:11;;;;;;;12.88;4.53;;;11.50;99.90;;;;;;5096625;28;20032;-69
2023/03/31 05:33:40;;;;;;;14.20;4.20;;;11.40;99.90;;;;;;5095898;28;20110;-69
2023/03/31 05:36:11;;;;;;;10.05;3.42;;;11.30;99.90;;;;;;5096921;28;20150;-69
2023/03/31 05:38:37;;;;;;;11.37;3.90;;;11.20;99.90;;;;;;5099384;28;20023;-69
2023/03/31 05:41:03;;;;;;;11.68;4.28;;;11.30;99.90;;;;;;5099591;28;20043;-68
2023/03/31 05:43:29;;;;;;;10.63;3.30;;;11.20;99.90;;;;;;5100550;28;20024;-68
2023/03/31 05:45:54;;;;;;;13.70;3.90;;;11.30;99.90;;;;;;5099908;28;20031;-69
2023/03/31 05:48:20;;;;;;;14.88;4.38;;;11.30;99.90;;;;;;5099850;28;20031;-69
2023/03/31 05:50:46;;;;;;;6.30;3.83;;;11.30;99.90;;;;;;5099528;28;20054;-69
2023/03/31 05:53:12;;;;;;;13.10;4.10;;;11.30;99.90;;;;;;5099578;28;20031;-69
2023/03/31 05:55:38;;;;;;;15.02;4.35;;;11.40;99.90;;;;;;5100155;28;20020;-69
2023/03/31 05:58:03;;;;;;;12.82;3.80;;;11.40;99.90;;;;;;5099559;28;20020;-69
2023/03/31 06:00:30;;;;;;;13.68;4.50;;;11.40;99.90;;;;;;5099728;28;20027;-69
2023/03/31 06:02:56;;;;;;;11.60;3.90;;;11.40;99.90;;;;;;5099477;28;20024;-69
2023/03/31 06:05:25;;;;;;;11.82;3.05;;;11.20;99.90;;;;;;5099323;28;20024;-69
2023/03/31 06:07:51;;;;;;;14.75;3.42;;;11.30;99.90;;;;;;5100077;28;20107;-69
2023/03/31 06:10:17;;;;;;;10.55;3.53;;;11.30;99.90;;;;;;5099641;28;20115;-69
2023/03/31 06:12:43;;;;;;;11.77;3.45;;;11.30;99.90;;;;;;5100060;28;20020;-69
2023/03/31 06:15:09;;;;;;;7.82;3.28;;;11.20;99.90;;;;;;5098996;28;20026;-69
2023/03/31 06:17:34;;;;;;;8.73;3.13;;;11.10;99.90;;;;;;5099397;28;20089;-69
2023/03/31 06:20:00;;;;;;;6.60;3.15;;;11.10;99.90;;;;;;5098946;28;20031;-69
2023/03/31 06:22:26;;;;;;;6.25;2.90;;;11.00;99.90;;;;;;5100022;28;20140;-69
2023/03/31 06:24:51;;;;;;;14.38;3.92;;;11.00;99.90;;;;;;5099157;28;20024;-68
2023/03/31 06:27:17;;;;;;;11.70;3.00;;;10.80;99.90;;;;;;5099348;28;20020;-68
2023/03/31 06:29:42;;;;;;;15.38;3.65;;;10.80;99.90;;;;;;5099106;28;20020;-68
2023/03/31 06:32:08;;;;;;;10.13;2.90;;;10.80;99.90;;;;;;5098954;28;20027;-68
2023/03/31 06:34:34;;;;;;;7.47;2.85;;;10.80;99.90;;;;;;5099440;28;20016;-68
2023/03/31 06:36:59;;;;;;;16.15;3.33;;;10.80;99.90;;;;;;5099682;28;20020;-68
2023/03/31 06:39:25;;;;;;;7.05;2.92;;;10.80;99.90;;;;;;5098943;28;20054;-68
2023/03/31 06:41:50;;;;;;;12.77;3.40;;;10.70;99.90;;;;;;5098612;28;20024;-68
2023/03/31 06:44:18;;;;;;;14.25;3.83;;;10.50;99.90;;;;;;5099382;28;20020;-68
2023/03/31 06:46:43;;;;;;;12.13;3.58;;;10.50;99.90;;;;;;5098368;28;20058;-68
2023/03/31 06:49:09;;;;;;;10.05;3.03;;;10.40;99.90;;;;;;5098637;28;20020;-67
2023/03/31 06:51:35;;;;;;;6.95;2.75;;;10.20;99.90;;;;;;5098537;28;20048;-67
2023/03/31 06:54:00;;;;;;;18.98;3.70;;;10.20;99.90;;;;;;5098169;28;20020;-67
2023/03/31 06:56:26;;;;;;;16.75;3.67;;;10.30;99.90;;;;;;5098159;28;20023;-67
2023/03/31 06:58:52;;;;;;;19.00;4.55;;;10.50;99.90;;;;;;5099059;28;20024;-67
2023/03/31 07:01:18;;;;;;;14.10;3.40;;;10.50;99.90;;;;;;5099229;28;20123;-67
2023/03/31 07:03:43;;;;;;;12.93;3.78;;;10.50;99.90;;;;;;5098634;28;20114;-67
2023/03/31 07:06:09;;;;;;;23.15;5.22;;;10.60;99.90;;;;;;5098423;28;20043;-67
2023/03/31 07:08:35;;;;;;;12.68;3.28;;;10.60;99.90;;;;;;5098006;28;20020;-67
2023/03/31 07:11:01;;;;;;;8.60;2.97;;;10.60;99.90;;;;;;5098775;28;20024;-67
2023/03/31 07:13:27;;;;;;;13.13;3.08;;;10.60;99.90;;;;;;5098884;28;20103;-67
2023/03/31 07:15:53;;;;;;;11.57;3.13;;;10.60;99.90;;;;;;5097788;28;20055;-67
2023/03/31 07:18:19;;;;;;;8.38;2.60;;;10.60;99.90;;;;;;5098699;28;20024;-67
2023/03/31 07:20:48;;;;;;;16.38;3.70;;;10.70;99.90;;;;;;5098549;28;20028;-67
2023/03/31 07:23:14;;;;;;;9.63;2.65;;;10.60;99.90;;;;;;5097597;28;20089;-66
2023/03/31 07:25:39;;;;;;;13.02;2.85;;;10.30;99.90;;;;;;5098911;28;20024;-66
2023/03/31 07:28:05;;;;;;;10.95;2.63;;;10.30;99.90;;;;;;5097564;28;20032;-67
2023/03/31 07:30:31;;;;;;;7.72;2.25;;;10.20;99.90;;;;;;5098157;28;20020;-67
2023/03/31 07:32:57;;;;;;;12.35;2.33;;;10.30;99.90;;;;;;5097535;28;20024;-67
2023/03/31 07:35:23;;;;;;;9.23;2.42;;;10.40;99.90;;;;;;5097437;28;20031;-66
2023/03/31 07:37:50;;;;;;;14.50;2.63;;;10.40;99.90;;;;;;5097514;28;20016;-67
2023/03/31 07:40:20;;;;;;;6.95;2.33;;;10.50;99.90;;;;;;5097375;28;20032;-67
2023/03/31 07:42:47;;;;;;;7.00;2.65;;;10.70;99.90;;;;;;5098116;28;20028;-67
2023/03/31 07:45:16;;;;;;;7.50;3.25;;;10.70;99.90;;;;;;5097290;28;20024;-67
2023/03/31 07:47:43;;;;;;;9.80;3.05;;;10.70;99.90;;;;;;5097986;28;20035;-67
2023/03/31 07:50:09;;;;;;;11.50;2.30;;;10.60;99.90;;;;;;5097314;28;20056;-67
2023/03/31 07:52:35;;;;;;;8.02;2.40;;;10.40;99.90;;;;;;5097097;28;20020;-66
2023/03/31 07:55:02;;;;;;;12.10;2.85;;;10.30;99.90;;;;;;5097089;28;20031;-66
2023/03/31 07:57:28;;;;;;;10.95;3.03;;;10.30;99.90;;;;;;5097147;28;20069;-67
2023/03/31 07:59:53;;;;;;;14.30;2.80;;;10.40;99.90;;;;;;5096496;28;20019;-66
2023/03/31 08:02:19;;;;;;;15.20;3.10;;;10.30;99.90;;;;;;5097019;28;20085;-66
2023/03/31 08:04:46;;;;;;;16.38;3.33;;;10.30;99.90;;;;;;5097091;28;20028;-66
2023/03/31 08:07:13;;;;;;;11.98;2.28;;;10.20;99.90;;;;;;5096802;28;20020;-66
2023/03/31 08:09:39;;;;;;;8.70;2.55;;;10.30;99.90;;;;;;5096815;28;20028;-66
2023/03/31 08:12:05;;;;;;;10.90;2.60;;;10.40;99.90;;;;;;5097048;28;20026;-66
2023/03/31 08:14:31;;;;;;;9.18;3.50;;;10.40;99.90;;;;;;5097644;28;20027;-66
2023/03/31 08:16:59;;;;;;;10.65;3.22;;;10.50;99.90;;;;;;5096721;28;20028;-67
2023/03/31 08:19:25;;;;;;;5.72;2.50;;;10.70;99.90;;;;;;5096647;28;20108;-67
2023/03/31 08:21:51;;;;;;;5.30;2.83;;;10.60;99.90;;;;;;5096751;28;20051;-67
2023/03/31 08:24:16;;;;;;;10.20;2.83;;;10.70;99.90;;;;;;5097661;28;20041;-66
2023/03/31 08:26:42;;;;;;;14.18;3.65;;;10.80;99.90;;;;;;5097513;28;20016;-67
2023/03/31 08:29:08;;;;;;;8.63;3.28;;;11.00;99.90;;;;;;5096599;28;20069;-66
2023/03/31 08:31:33;;;;;;;9.45;3.50;;;11.10;99.90;;;;;;5096830;28;20031;-67
2023/03/31 08:33:59;;;;;;;6.30;3.00;;;11.10;99.90;;;;;;5097332;28;20048;-66
2023/03/31 08:36:26;;;;;;;7.00;2.42;;;11.10;99.90;;;;;;5096742;28;20027;-67
2023/03/31 08:38:53;;;;;;;11.13;3.33;;;11.20;99.90;;;;;;5097242;28;20049;-67
2023/03/31 08:41:36;;;;;;;7.80;2.80;;;11.30;99.90;;;;;;5096373;28;20024;-67
2023/03/31 08:44:21;;;;;;;11.27;3.47;;;11.30;99.90;;;;;;5097129;28;20107;-66
2023/03/31 08:46:51;;;;;;;7.22;2.42;;;11.40;99.90;;;;;;5097133;28;20020;-66
2023/03/31 08:49:19;;;;;;;5.50;2.55;;;11.50;99.90;;;;;;5097730;28;20081;-66
2023/03/31 08:51:49;;;;;;;10.45;2.72;;;11.60;99.90;;;;;;5096054;28;20035;-67
2023/03/31 08:54:34;;;;;;;7.13;2.38;;;11.70;99.90;;;;;;5096242;28;20020;-66
2023/03/31 08:57:04;;;;;;;1.38;0.93;;;11.80;99.90;;;;;;5096231;28;20031;-66
2023/03/31 08:59:35;;;;;;;3.33;1.15;;;11.80;99.90;;;;;;5097058;28;20027;-66
2023/03/31 09:02:17;;;;;;;5.80;1.40;;;11.90;99.90;;;;;;5097167;28;20032;-67
2023/03/31 09:04:57;;;;;;;3.95;1.35;;;12.00;99.90;;;;;;5096173;28;20035;-66
2023/03/31 09:07:29;;;;;;;0.65;0.60;;;12.00;99.90;;;;;;5096352;28;20020;-66
2023/03/31 09:10:23;;;;;;;1.15;0.60;;;12.10;99.90;;;;;;5097230;28;20104;-66
2023/03/31 09:13:21;;;;;;;1.65;0.73;;;12.30;99.90;;;;;;5098127;28;20024;-66
2023/03/31 09:15:58;;;;;;;3.78;0.50;;;12.40;99.90;;;;;;5100104;28;20028;-66
2023/03/31 09:18:34;;;;;;;2.17;0.65;;;12.50;99.90;;;;;;5100328;28;20031;-66
2023/03/31 09:21:06;;;;;;;0.40;0.32;;;12.60;99.90;;;;;;5100094;28;20025;-66
2023/03/31 09:23:40;;;;;;;3.25;0.70;;;12.70;99.90;;;;;;5100939;28;20098;-66
2023/03/31 09:26:28;;;;;;;0.50;0.40;;;12.80;99.90;;;;;;5100736;28;20022;-66
2023/03/31 09:28:56;;;;;;;6.03;0.88;;;12.90;99.90;;;;;;5100627;28;20124;-66
2023/03/31 09:31:22;;;;;;;1.85;0.73;;;13.00;99.90;;;;;;5100789;28;20043;-66
2023/03/31 09:33:52;;;;;;;2.88;0.60;;;13.10;99.90;;;;;;5099791;28;20073;-66
2023/03/31 09:36:21;;;;;;;2.08;0.75;;;13.00;99.90;;;;;;5100476;28;20057;-66
2023/03/31 09:38:47;;;;;;;3.88;1.13;;;13.10;99.90;;;;;;5099550;28;20073;-66
2023/03/31 09:41:15;;;;;;;4.97;1.02;;;13.20;99.90;;;;;;5099958;28;20024;-66
2023/03/31 09:43:42;;;;;;;1.55;0.77;;;13.10;99.90;;;;;;5099963;28;20027;-66
2023/03/31 09:46:34;;;;;;;2.80;0.95;;;13.20;99.90;;;;;;5099515;28;20115;-66
2023/03/31 09:49:11;;;;;;;3.40;1.40;;;13.20;99.90;;;;;;5095341;28;20032;-66
2023/03/31 09:51:40;;;;;;;8.43;1.10;;;13.10;99.90;;;;;;5099146;28;20042;-66
2023/03/31 09:54:18;;;;;;;5.93;0.93;;;13.10;99.90;;;;;;5100436;28;20034;-66
2023/03/31 09:56:47;;;;;;;3.80;1.05;;;13.10;99.90;;;;;;5100264;28;20031;-66
2023/03/31 09:59:19;;;;;;;5.60;1.27;;;13.00;99.90;;;;;;5099544;28;20024;-66
2023/03/31 10:01:48;;;;;;;8.63;1.33;;;12.90;99.90;;;;;;5100156;28;20047;-66
2023/03/31 10:04:21;;;;;;;6.18;1.25;;;12.60;99.90;;;;;;5100067;28;20036;-66
2023/03/31 10:06:47;;;;;;;6.15;1.10;;;12.60;99.90;;;;;;5099232;28;20118;-66
2023/03/31 10:09:14;;;;;;;2.83;1.08;;;12.60;99.90;;;;;;5099954;28;20111;-66
2023/03/31 10:12:10;;;;;;;3.47;1.15;;;12.60;99.90;;;;;;5099893;28;20020;-66
2023/03/31 10:14:44;;;;;;;5.07;1.02;;;12.70;99.90;;;;;;5091728;28;20024;-66
2023/03/31 10:17:15;;;;;;;4.50;1.10;;;12.60;99.90;;;;;;5099858;28;20020;-66
2023/03/31 10:19:51;;;;;;;3.78;0.90;;;12.60;99.90;;;;;;5098970;28;20020;-66
2023/03/31 10:22:20;;;;;;;3.55;1.20;;;12.60;99.90;;;;;;5100014;28;20039;-66
2023/03/31 10:24:47;;;;;;;5.78;1.15;;;12.60;99.90;;;;;;5098478;28;20024;-66
2023/03/31 10:27:23;;;;;;;5.70;1.30;;;12.60;99.90;;;;;;5099552;28;20027;-66
2023/03/31 10:30:10;;;;;;;5.60;1.10;;;12.70;99.90;;;;;;5099965;28;20082;-66
2023/03/31 10:32:41;;;;;;;5.13;1.10;;;12.80;99.90;;;;;;5099712;28;20111;-66
2023/03/31 10:35:34;;;;;;;2.28;1.05;;;12.90;99.90;;;;;;5099702;28;20024;-66
2023/03/31 10:38:14;;;;;;;2.85;1.00;;;13.00;99.90;;;;;;5092470;28;20035;-66
2023/03/31 10:40:49;;;;;;;5.60;1.00;;;12.90;99.90;;;;;;5099993;28;20032;-63
2023/03/31 10:43:18;;;;;;;6.18;1.10;;;12.90;99.90;;;;;;5099690;28;20170;-63
2023/03/31 10:45:50;;;;;;;3.83;0.80;;;12.90;99.90;;;;;;5098614;28;20024;-63
2023/03/31 10:48:38;;;;;;;3.35;0.98;;;12.80;99.90;;;;;;5098641;28;20030;-63
2023/03/31 10:51:15;;;;;;;2.70;1.10;;;12.60;99.90;;;;;;5098168;28;20035;-63
2023/03/31 10:53:42;;;;;;;3.63;0.93;;;12.50;99.90;;;;;;5098317;28;20024;-63
2023/03/31 10:56:18;;;;;;;6.65;1.92;;;12.30;99.90;;;;;;5098270;28;20016;-63
2023/03/31 11:02:26;;;;;;;2.42;0.82;;;12.20;99.90;;;;;;5099365;28;20043;-63
2023/03/31 11:05:22;;;;;;;1.75;0.60;;;12.10;99.90;;;;;;5099214;28;20045;-63
2023/03/31 11:08:09;;;;;;;7.32;2.97;;;12.00;99.90;;;;;;5098018;28;20103;-63
2023/03/31 11:10:57;;;;;;;1.23;0.40;;;12.00;99.90;;;;;;5097978;28;20028;-63
2023/03/31 11:13:43;;;;;;;8.32;0.75;;;11.80;99.90;;;;;;5097937;28;20020;-62
2023/03/31 11:16:17;;;;;;;3.67;0.88;;;11.60;99.90;;;;;;5097873;28;20024;-63
2023/03/31 11:19:18;;;;;;;1.85;0.70;;;11.50;99.90;;;;;;5098888;28;20017;-63
2023/03/31 11:21:50;;;;;;;3.10;0.82;;;11.40;99.90;;;;;;5098103;28;20024;-63
2023/03/31 11:24:45;;;;;;;5.20;0.95;;;11.30;99.90;;;;;;5097774;28;20087;-63
2023/03/31 11:27:26;;;;;;;3.00;0.75;;;11.20;99.90;;;;;;5097721;28;20042;-63
2023/03/31 11:30:17;;;;;;;3.13;0.70;;;11.20;99.90;;;;;;5097622;28;20085;-64
2023/03/31 11:32:54;;;;;;;2.55;0.90;;;11.10;99.90;;;;;;5097591;28;20051;-63
2023/03/31 11:35:53;;;;;;;3.92;1.75;;;11.10;99.90;;;;;;5096423;28;20035;-63
2023/03/31 11:38:39;;;;;;;2.83;0.70;;;11.00;99.90;;;;;;5098197;28;20012;-63
2023/03/31 11:41:13;;;;;;;7.55;1.25;;;10.80;99.90;;;;;;5098372;28;20046;-63
2023/03/31 11:43:47;;;;;;;3.95;1.13;;;11.00;99.90;;;;;;5097480;28;20077;-63
2023/03/31 11:46:42;;;;;;;6.30;1.10;;;11.30;99.90;;;;;;5097519;28;20028;-63
2023/03/31 11:49:25;;;;;;;3.55;0.70;;;11.90;99.90;;;;;;5098145;28;20028;-63
2023/03/31 11:51:52;;;;;;;4.82;0.80;;;12.40;99.90;;;;;;5097367;28;20120;-63
2023/03/31 11:54:35;;;;;;;3.90;0.70;;;12.70;99.90;;;;;;5097167;28;20115;-63
2023/03/31 11:57:29;;;;;;;2.05;0.55;;;12.70;99.90;;;;;;5097078;28;20028;-63
2023/03/31 12:00:05;;;;;;;1.90;0.68;;;12.60;99.90;;;;;;5094913;28;20028;-63
2023/03/31 12:02:58;;;;;;;5.68;1.40;;;12.40;99.90;;;;;;5097791;28;20012;-63
2023/03/31 12:05:26;;;;;;;6.65;1.85;;;12.40;99.90;;;;;;5097050;28;20044;-63
2023/03/31 12:08:07;;;;;;;8.55;2.35;;;12.50;99.90;;;;;;5097160;28;20016;-63
2023/03/31 12:10:37;;;;;;;6.30;0.82;;;12.70;99.90;;;;;;5097731;28;20110;-64
2023/03/31 12:13:27;;;;;;;2.15;0.75;;;12.90;99.90;;;;;;5097183;28;20024;-63
2023/03/31 12:16:08;;;;;;;2.55;0.65;;;13.10;99.90;;;;;;5097628;28;20028;-63
2023/03/31 12:18:57;;;;;;;3.70;1.05;;;13.20;99.90;;;;;;5095129;28;20043;-63
2023/03/31 12:21:25;;;;;;;5.05;0.77;;;13.20;99.90;;;;;;5092282;28;20040;-64
2023/03/31 12:23:51;;;;;;;3.28;1.13;;;13.10;99.90;;;;;;5096118;28;20035;-63
2023/03/31 12:26:48;;;;;;;5.13;0.60;;;12.90;99.90;;;;;;5095745;28;20024;-64
2023/03/31 12:29:26;;;;;;;3.42;0.80;;;12.80;99.90;;;;;;5094995;28;20122;-63
2023/03/31 12:31:55;;;;;;;0.68;0.60;;;12.80;99.90;;;;;;5096146;28;20111;-63
2023/03/31 12:34:24;;;;;;;7.95;1.00;;;12.50;99.90;;;;;;5096641;28;20024;-63
2023/03/31 12:37:25;;;;;;;6.63;0.98;;;12.50;99.90;;;;;;5096435;28;20024;-63
2023/03/31 12:40:22;;;;;;;3.50;0.77;;;12.60;99.90;;;;;;5097613;28;20028;-63
2023/03/31 12:43:33;;;;;;;5.57;0.73;;;12.90;99.90;;;;;;5097336;28;20059;-64
2023/03/31 12:46:04;;;;;;;8.40;1.00;;;13.50;99.90;;;;;;5085935;28;20077;-64
2023/03/31 12:48:58;;;;;;;5.75;0.70;;;14.00;99.90;;;;;;5096378;28;20020;-63
2023/03/31 12:51:42;;;;;;;5.45;0.98;;;14.60;99.90;;;;;;5096230;28;20094;-63
2023/03/31 12:54:36;;;;;;;8.73;0.90;;;14.70;99.90;;;;;;5096397;28;20059;-64
2023/03/31 12:57:07;;;;;;;6.22;1.13;;;14.40;99.90;;;;;;5097337;28;20016;-63
2023/03/31 12:59:38;;;;;;;4.25;0.88;;;14.10;99.90;;;;;;5097087;28;20025;-63
2023/03/31 13:02:20;;;;;;;4.55;1.08;;;13.90;99.90;;;;;;5096300;28;20159;-63
2023/03/31 13:04:45;;;;;;;4.03;0.80;;;13.80;99.90;;;;;;5097338;28;20093;-63
2023/03/31 13:07:26;;;;;;;5.13;1.38;;;13.80;99.90;;;;;;5096142;28;20031;-63
2023/03/31 13:10:11;;;;;;;2.08;0.80;;;13.90;99.90;;;;;;5096130;28;20024;-63
2023/03/31 13:12:37;;;;;;;4.70;0.88;;;14.00;99.90;;;;;;5096241;28;20024;-63
2023/03/31 13:15:04;;;;;;;4.35;0.90;;;13.80;99.90;;;;;;5096061;28;20024;-63
2023/03/31 13:17:34;;;;;;;6.72;1.23;;;13.70;99.90;;;;;;5096582;28;20020;-63